Cambridge, MN (55008)

7:25 AM CDT on September 02, 2015 (GMT -0500)
Little Africa, West Cambridge | | Change Station
CLOSE
Current Station
Personal Weather Station
Location: Cambridge, MN
Elevation: 955 ft
Nearby Weather Stations

Elev 955 ft 45.58 °N, 93.29 °W | Updated 11 seconds ago

Rain
Rain
67.1 °F
Feels Like 67.1 °F
N
0.0
Wind Variable Wind from SE
Gusts 2.0 mph

Today
High -- | Low -- °F
--% Chance of Precip.
Yesterday
High -- | Low -- °F
Precip. -- in
6:35 AM 7:49 PM
Waning Gibbous, 80% visible
Pressure 29.91 in
Visibility 5.0 miles
Clouds Scattered Clouds 7000 ft
Dew Point 66 °F
Humidity 97%
Rainfall 0.02 in
Snow Depth Not available.
UV 0 out of 12
Pollen 10.00 out of 12
Air Quality Not available.
Flu Activity Not available.
METAR KCBG 021215Z AUTO 00000KT 5SM VCTSHZ SCT070 21/16 A2991 RMK AO2 LTG DSNT E AND S
Pressure 29.91 in
Visibility 5.0 miles
Clouds Scattered Clouds 7000 ft
Dew Point 66 °F
Humidity 97%
Rainfall 0.02 in
Snow Depth Not available.
UV 0 out of 12
Pollen 10.00 out of 12
Air Quality Not available.
Flu Activity Not available.
METAR KCBG 021215Z AUTO 00000KT 5SM VCTSHZ SCT070 21/16 A2991 RMK AO2 LTG DSNT E AND S

10-Day Weather Forecast

×

Almanac

Astronomy

Sep. 02, 2015 Rise Set
Actual Time
Civil Twilight
Nautical Twilight
Astronomical Twilight
Moon
Length of Visible Light
Length of Day
Tomorrow will be .
, % of the Moon is Illuminated

Today's Extremes

State Highs State Lows

Community

WunderPhotos

Upload Photos

1,851,738 photos uploaded!

WunderBlogs® & News

Nearby

Air Quality

  Air Quality AQ Index Pollutant
Not available.

Snow Depth

Station Depth Elevation

Earthquake Activity

City Distance Mag. Time & Date
Minimum magnitude displayed is 2.5.

Coastal Water Temperatures

Place Temperature

Stations

Nearby Weather Stations

Station Location Temp. Windchill Dew Point Humidity Wind Precip. Elev Updated Type